Time;durP1;ratioP1;P1;durP2;ratioP2;P2;SDS_P1;SDS_P2;PMS_P1;PMS_P2;Temp;Humidity;BMP_temperature;BMP_pressure;BME280_temperature;BME280_humidity;BME280_pressure;Samples;Min_cycle;Max_cycle;Signal;HPM_P1;HPM_P2
2022/09/25 00:00:43;;;;;;;4.62;2.40;;;;;;;9.92;100.00;99545.04;1747052;80;21428;-58
2022/09/25 00:03:11;;;;;;;3.10;2.67;;;;;;;9.82;100.00;99545.88;1755282;80;21812;-59
2022/09/25 00:05:39;;;;;;;3.08;2.22;;;;;;;9.79;100.00;99553.88;1750040;80;21395;-58
2022/09/25 00:08:07;;;;;;;2.67;2.22;;;;;;;9.77;100.00;99550.92;1708482;82;21054;-59
2022/09/25 00:10:41;;;;;;;2.70;2.33;;;;;;;9.70;100.00;99558.19;1752331;80;21507;-58
2022/09/25 00:13:07;;;;;;;3.62;2.42;;;;;;;9.59;100.00;99559.95;1747976;80;21564;-58
2022/09/25 00:15:36;;;;;;;2.37;2.17;;;;;;;9.54;100.00;99554.88;1744467;80;21617;-58
2022/09/25 00:18:03;;;;;;;2.83;2.30;;;;;;;9.56;100.00;99554.81;1746489;80;21503;-58
2022/09/25 00:20:30;;;;;;;2.65;2.17;;;;;;;9.58;100.00;99545.11;1759817;80;21605;-58
2022/09/25 00:22:57;;;;;;;4.83;2.62;;;;;;;9.55;100.00;99548.72;1747926;80;21530;-58
2022/09/25 00:25:26;;;;;;;3.90;3.53;;;;;;;9.58;100.00;99543.80;1751265;80;21506;-58
2022/09/25 00:27:53;;;;;;;2.52;2.22;;;;;;;9.61;100.00;99548.94;1745416;80;21808;-57
2022/09/25 00:30:20;;;;;;;4.20;2.85;;;;;;;9.59;100.00;99550.77;1750316;80;21494;-58
2022/09/25 00:32:46;;;;;;;2.42;2.20;;;;;;;9.54;100.00;99552.25;1747121;80;20990;-59
2022/09/25 00:35:13;;;;;;;5.40;2.60;;;;;;;9.54;100.00;99548.77;1752186;80;21546;-58
2022/09/25 00:37:40;;;;;;;2.52;2.30;;;;;;;9.57;100.00;99549.98;1755177;80;21415;-58
2022/09/25 00:40:07;;;;;;;2.52;2.30;;;;;;;9.57;100.00;99548.66;1746929;80;21778;-57
2022/09/25 00:42:35;;;;;;;2.58;2.35;;;;;;;9.53;100.00;99553.18;1748166;80;21574;-58
2022/09/25 00:45:15;;;;;;;2.40;2.20;;;;;;;9.48;100.00;99547.25;1747348;80;21508;-57
2022/09/25 00:48:01;;;;;;;3.22;2.33;;;;;;;9.51;100.00;99551.52;1724461;80;21435;-58
2022/09/25 00:50:51;;;;;;;2.37;2.20;;;;;;;9.41;100.00;99543.16;1752270;80;21668;-58
2022/09/25 00:53:28;;;;;;;2.50;2.27;;;;;;;9.39;100.00;99547.61;1747764;80;21820;-57
2022/09/25 00:55:55;;;;;;;2.20;2.05;;;;;;;9.42;100.00;99548.81;1751911;80;21077;-58
2022/09/25 00:58:23;;;;;;;3.10;2.30;;;;;;;9.40;100.00;99549.34;1756570;80;21558;-57
2022/09/25 01:00:50;;;;;;;2.67;2.47;;;;;;;9.41;100.00;99557.59;1748930;80;21439;-57
2022/09/25 01:03:18;;;;;;;2.87;2.35;;;;;;;9.41;100.00;99557.59;1748023;80;21010;-58
2022/09/25 01:05:45;;;;;;;;;;;;;;;9.42;100.00;99564.99;1744816;80;21948;-58
2022/09/25 01:08:16;;;;;;;7.33;2.95;;;;;;;9.32;100.00;99563.19;1747954;80;20427;-58
2022/09/25 01:10:42;;;;;;;3.52;2.02;;;;;;;9.24;100.00;99558.25;1746213;80;20962;-58
2022/09/25 01:13:09;;;;;;;3.47;2.35;;;;;;;9.22;100.00;99560.08;1746413;80;21540;-58
2022/09/25 01:16:00;;;;;;;4.75;2.60;;;;;;;9.20;100.00;99556.66;1739451;80;21615;-58
2022/09/25 01:18:54;;;;;;;2.92;2.45;;;;;;;9.12;100.00;99551.71;1748551;80;21888;-58
2022/09/25 01:21:47;;;;;;;2.15;2.05;;;;;;;9.19;100.00;99553.63;1747305;80;21498;-58
2022/09/25 01:24:58;;;;;;;2.52;2.20;;;;;;;9.23;100.00;99556.98;1755047;80;21531;-58
2022/09/25 01:27:32;;;;;;;3.72;2.20;;;;;;;9.24;100.00;99556.94;1706181;83;21633;-58
2022/09/25 01:30:13;;;;;;;3.65;2.42;;;;;;;9.29;100.00;99559.40;1710676;82;21522;-58
2022/09/25 01:33:17;;;;;;;2.98;2.35;;;;;;;9.23;100.00;99559.61;1704499;82;21838;-58
2022/09/25 01:36:03;;;;;;;4.37;2.37;;;;;;;9.29;100.00;99558.93;1701357;83;21613;-58
2022/09/25 01:38:41;;;;;;;2.77;2.33;;;;;;;9.31;100.00;99558.41;1707551;83;21589;-58
2022/09/25 01:41:36;;;;;;;3.10;2.45;;;;;;;9.26;100.00;99560.34;1716475;82;21691;-58
2022/09/25 01:44:08;;;;;;;2.47;2.27;;;;;;;9.25;100.00;99557.34;1712477;83;21569;-58
2022/09/25 01:46:47;;;;;;;2.60;2.40;;;;;;;9.25;100.00;99552.53;1711541;83;22107;-59
2022/09/25 01:49:31;;;;;;;2.67;2.45;;;;;;;9.27;100.00;99554.67;1709659;82;21439;-58
2022/09/25 01:51:58;;;;;;;5.40;2.80;;;;;;;9.23;100.00;99553.93;1708512;82;20986;-57
2022/09/25 01:54:36;;;;;;;3.92;2.37;;;;;;;9.22;100.00;99557.45;1710297;82;21499;-57
2022/09/25 01:57:08;;;;;;;3.20;2.70;;;;;;;9.22;100.00;99556.61;1710213;83;21602;-58
2022/09/25 01:59:48;;;;;;;2.70;2.27;;;;;;;9.14;100.00;99565.62;1708940;83;21478;-58
2022/09/25 02:02:21;;;;;;;3.02;2.10;;;;;;;9.13;100.00;99567.83;1711183;83;21447;-58
2022/09/25 02:04:59;;;;;;;2.27;2.05;;;;;;;9.17;100.00;99560.70;1709214;82;21509;-57
2022/09/25 02:07:29;;;;;;;3.10;2.40;;;;;;;9.12;100.00;99562.20;1705665;83;21601;-57
2022/09/25 02:09:58;;;;;;;3.65;2.85;;;;;;;9.08;100.00;99562.36;1680564;83;21554;-58
2022/09/25 02:12:33;;;;;;;3.15;2.52;;;;;;;9.10;100.00;99574.52;1705414;83;21785;-57
2022/09/25 02:15:12;;;;;;;3.05;2.70;;;;;;;9.09;100.00;99568.02;1705391;82;21565;-58
2022/09/25 02:20:33;;;;;;;3.52;3.22;;;;;;;9.07;100.00;99564.60;1672737;85;21569;-58
2022/09/25 02:23:14;;;;;;;2.85;2.55;;;;;;;9.07;100.00;99563.29;1631728;86;21570;-58
2022/09/25 02:25:49;;;;;;;4.00;2.75;;;;;;;9.03;100.00;99561.70;1706922;82;21840;-57
2022/09/25 02:28:15;;;;;;;3.50;2.30;;;;;;;9.01;100.00;99562.22;1698173;82;21474;-58
2022/09/25 02:30:42;;;;;;;3.40;2.58;;;;;;;9.01;100.00;99568.78;1708518;82;21554;-59
2022/09/25 02:33:08;;;;;;;3.37;2.90;;;;;;;8.98;100.00;99567.10;1697478;82;21518;-57
2022/09/25 02:35:37;;;;;;;5.87;2.75;;;;;;;9.05;100.00;99570.36;1698519;83;21522;-57
2022/09/25 02:38:03;;;;;;;2.77;2.58;;;;;;;9.02;100.00;99573.94;1695571;83;21972;-57
2022/09/25 02:40:52;;;;;;;3.05;2.50;;;;;;;9.04;100.00;99572.58;1702991;83;21076;-57
2022/09/25 02:43:37;;;;;;;3.00;2.65;;;;;;;9.04;100.00;99564.27;1708448;82;21550;-57
2022/09/25 02:46:09;;;;;;;3.45;2.87;;;;;;;9.07;100.00;99571.16;1707866;82;21092;-57
2022/09/25 02:48:57;;;;;;;3.42;2.55;;;;;;;9.07;100.00;99573.78;1664763;85;21522;-57
2022/09/25 02:51:48;;;;;;;4.17;2.80;;;;;;;9.09;100.00;99565.40;1672142;84;21903;-58
2022/09/25 02:54:25;;;;;;;2.62;2.42;;;;;;;9.07;100.00;99569.38;1654675;84;21565;-58
2022/09/25 02:57:07;;;;;;;;;;;;;;;9.14;100.00;99564.77;1654466;86;21113;-57
2022/09/25 02:59:41;;;;;;;3.27;2.30;;;;;;;9.09;100.00;99566.24;1682987;83;20426;-58
2022/09/25 03:02:07;;;;;;;2.70;2.50;;;;;;;9.05;100.00;99565.97;1703004;82;21579;-58
2022/09/25 03:04:36;;;;;;;3.02;2.70;;;;;;;9.07;100.00;99563.29;1696197;83;21896;-57
2022/09/25 03:07:02;;;;;;;3.60;2.60;;;;;;;9.08;100.00;99562.36;1674720;84;21557;-57
2022/09/25 03:09:32;;;;;;;2.58;2.37;;;;;;;9.08;100.00;99552.75;1697349;82;20992;-57
2022/09/25 03:12:03;;;;;;;3.33;2.37;;;;;;;9.09;100.00;99558.84;1707346;82;21013;-57
2022/09/25 03:14:31;;;;;;;3.30;3.00;;;;;;;9.06;100.00;99560.25;1653974;85;21518;-57
2022/09/25 03:17:00;;;;;;;2.62;2.42;;;;;;;9.05;100.00;99563.81;1663889;85;21878;-58
2022/09/25 03:19:28;;;;;;;6.50;2.72;;;;;;;9.04;100.00;99564.70;1652574;85;21543;-58
2022/09/25 03:21:54;;;;;;;2.87;2.52;;;;;;;9.01;100.00;99564.38;1659073;85;21587;-57
2022/09/25 03:24:21;;;;;;;2.70;2.50;;;;;;;9.01;100.00;99564.38;1702552;83;21475;-57
2022/09/25 03:26:48;;;;;;;3.77;2.80;;;;;;;9.04;100.00;99563.39;1711912;82;21545;-57
2022/09/25 03:29:16;;;;;;;5.10;2.85;;;;;;;9.03;100.00;99565.17;1706242;83;21861;-59
2022/09/25 03:31:44;;;;;;;3.20;2.90;;;;;;;9.03;100.00;99565.17;1701721;83;25778;-58
2022/09/25 03:34:10;;;;;;;;;;;;;;;9.00;100.00;99566.59;1705437;82;21487;-58
2022/09/25 03:36:38;;;;;;;6.03;2.75;;;;;;;8.91;100.00;99578.73;1706086;83;20437;-57
2022/09/25 03:39:05;;;;;;;9.38;2.77;;;;;;;8.96;100.00;99576.80;1705869;82;21763;-57
2022/09/25 03:41:33;;;;;;;3.05;2.70;;;;;;;8.91;100.00;99579.61;1697226;83;21827;-58
2022/09/25 03:44:00;;;;;;;4.80;2.62;;;;;;;8.93;100.00;99576.47;1657224;85;21055;-57
2022/09/25 03:46:30;;;;;;;3.10;2.80;;;;;;;8.96;100.00;99576.33;1668450;85;21522;-57
2022/09/25 03:48:57;;;;;;;2.85;2.65;;;;;;;8.99;100.00;99579.78;1680681;84;21563;-57
2022/09/25 03:51:25;;;;;;;3.08;2.25;;;;;;;8.93;100.00;99579.55;1685613;84;21051;-57
2022/09/25 03:53:52;;;;;;;4.70;2.90;;;;;;;8.98;100.00;99582.84;1685080;84;22096;-57
2022/09/25 03:56:22;;;;;;;2.65;2.35;;;;;;;8.94;100.00;99581.25;1676591;84;21570;-57
2022/09/25 03:58:50;;;;;;;6.00;2.98;;;;;;;9.02;100.00;99580.95;1673220;84;21549;-57
2022/09/25 04:01:18;;;;;;;3.42;2.62;;;;;;;9.00;100.00;99586.72;1685070;83;21500;-58
2022/09/25 04:03:46;;;;;;;4.35;2.87;;;;;;;8.99;100.00;99591.12;1682161;83;21015;-58
2022/09/25 04:06:17;;;;;;;3.20;2.87;;;;;;;8.96;100.00;99592.53;1710447;82;21408;-59
2022/09/25 04:08:45;;;;;;;3.65;3.05;;;;;;;8.98;100.00;99592.02;1710846;82;21463;-58
2022/09/25 04:11:15;;;;;;;2.75;2.47;;;;;;;8.96;100.00;99597.31;1705170;82;21494;-57
2022/09/25 04:13:42;;;;;;;4.58;2.87;;;;;;;8.99;100.00;99593.73;1706836;82;21530;-58
2022/09/25 04:16:09;;;;;;;5.00;2.58;;;;;;;9.01;100.00;99591.06;1700030;83;21504;-57
2022/09/25 04:18:36;;;;;;;4.62;3.08;;;;;;;8.98;100.00;99589.39;1704512;82;21813;-59
2022/09/25 04:21:05;;;;;;;2.50;2.30;;;;;;;9.02;100.00;99595.38;1704069;83;21609;-58
2022/09/25 04:23:32;;;;;;;2.92;2.72;;;;;;;9.04;100.00;99590.50;1712158;81;21431;-59
2022/09/25 04:25:58;;;;;;;5.17;2.60;;;;;;;9.01;100.00;99596.31;1697836;83;21503;-58
2022/09/25 04:28:25;;;;;;;3.30;2.98;;;;;;;9.03;100.00;99591.40;1708687;82;21536;-58
2022/09/25 04:30:52;;;;;;;5.50;2.67;;;;;;;9.05;100.00;99592.66;1721487;81;22139;-58
2022/09/25 04:36:04;;;;;;;2.87;2.62;;;;;;;9.09;100.00;99593.78;1674370;84;21574;-59
2022/09/25 04:38:31;;;;;;;3.98;2.72;;;;;;;9.20;100.00;99597.33;1688463;84;21461;-59
2022/09/25 04:41:00;;;;;;;3.65;2.27;;;;;;;9.27;100.00;99601.89;1684153;83;21097;-59
2022/09/25 04:43:31;;;;;;;3.70;2.75;;;;;;;9.29;100.00;99609.25;1683120;84;21795;-58
2022/09/25 04:46:04;;;;;;;3.52;2.90;;;;;;;9.29;100.00;99610.56;1701277;81;21593;-59
2022/09/25 04:48:32;;;;;;;3.15;2.85;;;;;;;9.38;100.00;99604.96;1714966;82;21518;-58
2022/09/25 04:50:58;;;;;;;3.35;2.65;;;;;;;9.43;100.00;99603.45;1703739;82;21609;-58
2022/09/25 04:53:26;;;;;;;2.87;2.67;;;;;;;9.33;100.00;99602.97;1709103;82;21631;-58
2022/09/25 04:55:54;;;;;;;3.90;2.62;;;;;;;9.49;100.00;99601.47;1688321;83;21849;-58
2022/09/25 04:58:20;;;;;;;3.52;2.75;;;;;;;9.58;100.00;99607.26;1708629;81;21042;-59
2022/09/25 05:00:48;;;;;;;3.30;3.00;;;;;;;9.65;100.00;99599.08;1701696;81;21407;-59
2022/09/25 05:03:14;;;;;;;2.58;2.37;;;;;;;9.66;100.00;99603.86;1682176;84;21475;-59
2022/09/25 05:05:42;;;;;;;3.15;2.75;;;;;;;9.68;100.00;99600.28;1703504;82;21507;-58
2022/09/25 05:08:08;;;;;;;5.62;2.85;;;;;;;9.73;100.00;99600.08;1668898;84;21753;-59
2022/09/25 05:10:39;;;;;;;2.92;2.67;;;;;;;9.84;100.00;99600.97;1712859;82;21471;-58
2022/09/25 05:13:08;;;;;;;5.40;2.55;;;;;;;9.88;100.00;99605.17;1684150;84;21519;-58
2022/09/25 05:15:35;;;;;;;6.17;2.65;;;;;;;10.06;100.00;99602.27;1677959;83;21567;-57
2022/09/25 05:18:09;;;;;;;2.80;2.60;;;;;;;10.20;100.00;99606.94;1710429;82;21061;-58
2022/09/25 05:20:35;;;;;;;3.12;2.83;;;;;;;10.24;100.00;99599.32;1669107;84;22170;-59
2022/09/25 05:23:03;;;;;;;3.45;3.08;;;;;;;10.26;100.00;99594.85;1672740;84;21629;-57
2022/09/25 05:25:30;;;;;;;3.08;2.77;;;;;;;10.38;100.00;99606.64;1685282;83;21503;-59
2022/09/25 05:27:58;;;;;;;2.83;2.62;;;;;;;10.51;100.00;99603.91;1668131;83;21621;-58
2022/09/25 05:30:28;;;;;;;3.60;2.60;;;;;;;10.58;100.00;99603.17;1670629;83;21617;-58
2022/09/25 05:32:58;;;;;;;2.83;2.40;;;;;;;10.68;100.00;99610.59;1674637;83;21854;-57
2022/09/25 05:35:27;;;;;;;4.08;2.12;;;;;;;10.76;100.00;99601.52;1673406;84;21464;-57
2022/09/25 05:37:54;;;;;;;5.58;2.85;;;;;;;10.88;100.00;99603.59;1676992;84;21505;-57
2022/09/25 05:40:22;;;;;;;4.53;2.90;;;;;;;11.01;100.00;99598.64;1666407;83;21505;-58
2022/09/25 05:42:49;;;;;;;3.30;3.00;;;;;;;11.00;100.00;99594.28;1675108;84;21544;-58
2022/09/25 05:45:17;;;;;;;3.77;2.65;;;;;;;11.08;100.00;99597.45;1677717;84;21831;-57
2022/09/25 05:47:44;;;;;;;2.95;2.75;;;;;;;11.18;100.00;99592.13;1662228;84;21601;-58
2022/09/25 05:50:13;;;;;;;3.22;2.70;;;;;;;11.29;100.00;99600.39;1712122;83;21450;-58
2022/09/25 05:52:40;;;;;;;4.35;2.80;;;;;;;11.39;100.00;99603.91;1705891;81;21564;-57
2022/09/25 05:55:09;;;;;;;4.80;2.87;;;;;;;11.46;100.00;99606.66;1678139;82;21561;-59
2022/09/25 05:57:37;;;;;;;2.80;2.60;;;;;;;11.50;100.00;99612.16;1705490;83;21808;-59
2022/09/25 06:00:07;;;;;;;3.57;2.97;;;;;;;11.62;100.00;99612.03;1710254;83;21041;-60
2022/09/25 06:02:36;;;;;;;3.02;2.83;;;;;;;11.72;100.00;99617.27;1709054;82;21033;-59
2022/09/25 06:05:03;;;;;;;3.17;2.80;;;;;;;11.80;100.00;99605.05;1708286;83;21672;-59
2022/09/25 06:07:30;;;;;;;4.12;3.02;;;;;;;11.88;100.00;99605.52;1712635;82;21526;-58
2022/09/25 06:09:57;;;;;;;3.37;3.10;;;;;;;11.98;100.00;99610.77;1684064;82;22090;-58
2022/09/25 06:12:25;;;;;;;2.55;2.35;;;;;;;12.04;100.00;99609.62;1670115;84;21447;-58
2022/09/25 06:14:53;;;;;;;6.12;2.98;;;;;;;12.16;100.00;99610.31;1666989;84;21534;-58
2022/09/25 06:17:20;;;;;;;3.67;3.02;;;;;;;12.31;100.00;99615.75;1649888;84;21554;-61
2022/09/25 06:19:47;;;;;;;3.55;2.33;;;;;;;12.38;100.00;99619.32;1674473;83;21399;-58
2022/09/25 06:22:15;;;;;;;3.35;2.67;;;;;;;12.46;100.00;99617.13;1710157;82;21065;-59
2022/09/25 06:24:42;;;;;;;2.80;2.33;;;;;;;12.56;100.00;99617.98;1709828;81;21479;-59
2022/09/25 06:27:08;;;;;;;2.77;2.58;;;;;;;12.65;100.00;99617.05;1702301;83;21542;-59
2022/09/25 06:29:36;;;;;;;2.22;2.02;;;;;;;12.76;100.00;99623.56;1664964;83;21042;-58
2022/09/25 06:32:03;;;;;;;3.95;2.50;;;;;;;12.78;100.00;99619.90;1684206;83;21574;-58
2022/09/25 06:34:30;;;;;;;2.87;2.55;;;;;;;12.94;100.00;99621.73;1661106;84;21860;-59
2022/09/25 06:36:56;;;;;;;3.42;2.67;;;;;;;13.03;100.00;99624.76;1673447;84;21468;-59
2022/09/25 06:39:23;;;;;;;2.87;2.67;;;;;;;13.15;100.00;99623.23;1671809;85;21538;-58
2022/09/25 06:41:52;;;;;;;2.52;2.33;;;;;;;13.21;100.00;99622.90;1690298;83;21503;-58
2022/09/25 06:44:21;;;;;;;2.45;2.25;;;;;;;13.30;100.00;99629.92;1664358;83;21515;-58
2022/09/25 06:46:49;;;;;;;4.35;2.60;;;;;;;13.41;100.00;99624.95;1668869;84;21861;-58
2022/09/25 06:49:16;;;;;;;3.17;2.87;;;;;;;13.51;100.00;99622.20;1705423;82;21462;-58
2022/09/25 06:51:42;;;;;;;2.60;2.40;;;;;;;13.62;100.00;99621.14;1685241;82;21054;-60
2022/09/25 06:54:09;;;;;;;3.10;2.83;;;;;;;13.71;100.00;99629.03;1707873;81;21531;-61
2022/09/25 06:56:36;;;;;;;2.80;2.47;;;;;;;13.78;100.00;99626.40;1700065;82;21499;-58
2022/09/25 06:59:03;;;;;;;2.72;2.52;;;;;;;13.84;100.00;99625.20;1675621;83;21777;-58
2022/09/25 07:01:30;;;;;;;4.03;3.05;;;;;;;13.95;99.69;99620.16;1687188;83;21641;-58
2022/09/25 07:03:58;;;;;;;3.20;2.72;;;;;;;14.07;99.52;99620.39;1672203;83;21531;-58
2022/09/25 07:06:30;;;;;;;3.15;2.87;;;;;;;14.17;98.90;99618.46;1675066;84;21476;-59
2022/09/25 07:08:57;;;;;;;3.95;2.80;;;;;;;14.16;97.24;99619.39;1708079;83;21541;-59
2022/09/25 07:11:30;;;;;;;3.60;3.30;;;;;;;14.15;97.64;99617.70;1703842;83;21813;-59
2022/09/25 07:13:55;;;;;;;3.98;3.45;;;;;;;14.15;97.20;99612.41;1701847;81;21561;-58
2022/09/25 07:16:27;;;;;;;3.47;2.83;;;;;;;14.24;97.99;99612.36;1708529;81;21431;-58
2022/09/25 07:18:59;;;;;;;4.20;3.00;;;;;;;14.37;97.61;99613.79;1706408;81;21558;-58
2022/09/25 07:21:28;;;;;;;3.37;2.90;;;;;;;14.47;97.71;99610.99;1705131;82;21412;-58
2022/09/25 07:23:57;;;;;;;4.85;3.27;;;;;;;14.61;96.54;99615.48;1703825;82;21507;-59
2022/09/25 07:26:27;;;;;;;3.20;2.90;;;;;;;14.70;95.48;99615.41;1705122;83;21576;-59
2022/09/25 07:28:56;;;;;;;2.98;2.67;;;;;;;14.73;93.92;99617.41;1702786;82;21564;-59
2022/09/25 07:31:25;;;;;;;3.77;2.72;;;;;;;14.74;93.82;99608.51;1696331;81;20984;-59
2022/09/25 07:33:52;;;;;;;3.30;3.00;;;;;;;14.78;93.15;99606.05;1702860;83;21062;-59
2022/09/25 07:36:19;;;;;;;3.40;2.70;;;;;;;14.92;94.13;99609.20;1709254;83;21832;-58
2022/09/25 07:38:51;;;;;;;3.45;2.40;;;;;;;15.03;93.97;99607.22;1656500;85;21524;-59
2022/09/25 07:41:21;;;;;;;2.67;2.47;;;;;;;15.09;92.91;99608.16;1667039;84;21512;-58
2022/09/25 07:43:55;;;;;;;2.52;2.33;;;;;;;15.11;93.05;99611.55;1671001;84;21473;-59
2022/09/25 07:46:21;;;;;;;4.62;2.45;;;;;;;15.22;93.01;99613.99;1675144;84;21519;-59
2022/09/25 07:48:49;;;;;;;2.67;2.10;;;;;;;15.23;91.01;99607.28;1677284;84;21432;-61
2022/09/25 07:51:16;;;;;;;2.92;2.22;;;;;;;15.35;91.28;99597.70;1671243;83;21591;-59
2022/09/25 07:53:44;;;;;;;2.52;2.17;;;;;;;15.45;90.26;99594.02;1672903;83;21590;-60
2022/09/25 07:56:11;;;;;;;8.33;2.60;;;;;;;15.49;88.13;99599.02;1673496;83;21015;-59
2022/09/25 07:58:37;;;;;;;2.62;2.40;;;;;;;15.58;89.28;99594.45;1679995;83;21443;-59
2022/09/25 08:01:06;;;;;;;2.40;2.20;;;;;;;15.70;89.90;99598.59;1676581;83;22111;-59
2022/09/25 08:03:33;;;;;;;3.12;2.35;;;;;;;15.81;89.71;99593.47;1681489;83;21475;-59
2022/09/25 08:06:12;;;;;;;2.27;2.08;;;;;;;15.95;88.70;99596.08;1681518;83;21491;-60
2022/09/25 08:08:40;;;;;;;2.42;2.22;;;;;;;16.02;87.51;99594.34;1669316;84;21912;-60
2022/09/25 08:11:10;;;;;;;2.37;2.17;;;;;;;16.11;88.25;99596.38;1675679;84;21651;-59
2022/09/25 08:13:37;;;;;;;2.10;1.90;;;;;;;16.19;86.93;99600.69;1670863;83;21851;-60
2022/09/25 08:16:12;;;;;;;6.20;2.40;;;;;;;16.15;86.30;99597.39;1681968;83;27088;-60
2022/09/25 08:18:48;;;;;;;2.00;1.85;;;;;;;16.18;84.79;99602.11;1669147;85;21339;-60
2022/09/25 08:21:17;;;;;;;2.37;1.90;;;;;;;16.09;84.35;99600.46;1682183;84;21015;-60
2022/09/25 08:23:51;;;;;;;2.37;2.17;;;;;;;16.10;83.63;99600.81;1684726;84;21550;-60
2022/09/25 08:26:19;;;;;;;2.98;1.95;;;;;;;16.11;82.91;99602.53;1678498;84;21801;-59
2022/09/25 08:28:46;;;;;;;2.58;1.77;;;;;;;16.19;83.59;99595.39;1653913;83;21553;-60
2022/09/25 08:31:13;;;;;;;1.95;1.82;;;;;;;16.29;83.28;99596.48;1654174;86;21574;-59
2022/09/25 08:33:45;;;;;;;2.37;2.17;;;;;;;16.40;82.10;99594.90;1651075;86;21590;-59
2022/09/25 08:36:12;;;;;;;1.62;1.52;;;;;;;16.48;81.13;99596.09;1651945;83;21534;-59
2022/09/25 08:38:39;;;;;;;3.20;1.60;;;;;;;16.57;80.43;99587.95;1683052;82;21871;-59
2022/09/25 08:41:38;;;;;;;2.55;1.75;;;;;;;16.58;78.80;99580.38;1680173;84;21050;-59
2022/09/25 08:44:22;;;;;;;2.20;2.00;;;;;;;16.62;78.22;99585.00;1657404;85;21549;-59
2022/09/25 08:49:51;;;;;;;1.57;1.47;;;;;;;16.68;77.46;99589.39;1658311;85;21620;-62
2022/09/25 08:52:19;;;;;;;2.40;1.80;;;;;;;16.74;76.87;99582.36;1657427;84;21817;-61
2022/09/25 08:54:46;;;;;;;1.52;1.42;;;;;;;16.86;76.69;99581.16;1661603;85;21558;-61
2022/09/25 08:57:30;;;;;;;2.67;1.80;;;;;;;16.99;76.27;99587.77;1667309;85;21459;-61
2022/09/25 09:00:01;;;;;;;2.40;1.50;;;;;;;17.00;74.49;99585.02;1662363;84;21514;-61
2022/09/25 09:02:53;;;;;;;1.45;1.35;;;;;;;17.24;75.93;99582.91;1659875;85;21557;-60
2022/09/25 09:05:29;;;;;;;1.27;1.27;;;;;;;17.40;75.65;99574.19;1655517;84;21877;-61
2022/09/25 09:08:11;;;;;;;1.40;1.15;;;;;;;17.56;72.59;99571.28;1666824;84;28842;-61
2022/09/25 09:10:46;;;;;;;1.25;1.15;;;;;;;17.51;71.00;99578.73;1660960;85;21569;-60
2022/09/25 09:13:35;;;;;;;1.20;1.10;;;;;;;17.57;71.24;99572.13;1653358;85;21541;-59
2022/09/25 09:19:14;;;;;;;1.10;1.00;;;;;;;17.70;69.75;99580.41;1654897;84;21781;-61
2022/09/25 09:22:05;;;;;;;1.80;1.70;;;;;;;17.60;68.44;99570.58;1695443;82;21465;-61
2022/09/25 09:24:58;;;;;;;4.28;1.50;;;;;;;17.60;68.22;99555.96;1644374;85;21714;-62
2022/09/25 09:27:50;;;;;;;1.10;1.10;;;;;;;17.68;68.38;99548.26;1653933;85;21583;-60
2022/09/25 09:34:03;;;;;;;1.10;1.00;;;;;;;18.01;66.09;99557.39;1795006;79;23166;-62
2022/09/25 09:36:47;;;;;;;1.15;1.07;;;;;;;18.01;66.09;99557.39;1755238;80;21440;-61
2022/09/25 09:39:41;;;;;;;1.10;1.00;;;;;;;18.07;64.59;99556.44;1736112;81;21807;-61
2022/09/25 09:42:25;;;;;;;1.20;1.10;;;;;;;18.11;64.12;99549.08;1702770;81;21506;-60
2022/09/25 09:45:16;;;;;;;1.05;1.00;;;;;;;18.09;62.01;99547.02;1716618;82;21601;-61
2022/09/25 09:48:23;;;;;;;1.10;1.00;;;;;;;18.18;62.51;99544.98;1723983;82;21471;-66
2022/09/25 09:51:01;;;;;;;1.32;1.22;;;;;;;18.40;62.62;99541.55;1720461;82;21060;-59
2022/09/25 09:53:33;;;;;;;1.15;1.00;;;;;;;18.62;62.04;99540.70;1727217;81;21526;-61
2022/09/25 09:56:24;;;;;;;1.98;0.80;;;;;;;18.60;59.04;99546.64;1705509;81;21413;-59
2022/09/25 09:58:59;;;;;;;0.93;0.93;;;;;;;18.62;60.30;99539.38;1706086;81;21495;-60
2022/09/25 10:01:30;;;;;;;1.22;1.17;;;;;;;18.60;58.91;99542.64;1730694;81;21148;-61
2022/09/25 10:04:07;;;;;;;1.25;0.98;;;;;;;18.62;58.18;99536.71;1704945;83;21860;-60
2022/09/25 10:06:39;;;;;;;1.00;0.90;;;;;;;18.66;57.79;99530.17;1713115;81;21846;-63
2022/09/25 10:09:11;;;;;;;1.57;1.42;;;;;;;18.70;57.34;99532.61;1706819;81;21542;-63
2022/09/25 10:11:39;;;;;;;3.22;1.32;;;;;;;18.71;56.91;99536.48;1705305;82;21522;-62
2022/09/25 10:14:05;;;;;;;1.17;1.07;;;;;;;18.70;56.86;99537.94;1693492;82;21108;-61
2022/09/25 10:16:33;;;;;;;1.67;1.10;;;;;;;18.66;55.07;99528.00;1713284;81;20998;-61
2022/09/25 10:19:18;;;;;;;1.50;1.12;;;;;;;18.64;54.93;99528.61;1678882;83;21814;-61
2022/09/25 10:21:55;;;;;;;0.98;0.98;;;;;;;18.73;54.09;99531.89;1730194;81;21420;-61
2022/09/25 10:24:57;;;;;;;4.33;1.25;;;;;;;18.78;54.88;99534.17;1688597;82;21493;-61
2022/09/25 10:27:30;;;;;;;1.30;1.20;;;;;;;18.76;54.89;99537.44;1711557;82;21577;-61
2022/09/25 10:30:06;;;;;;;1.00;1.00;;;;;;;18.79;54.89;99534.55;1716446;82;21545;-62
2022/09/25 10:32:37;;;;;;;1.47;1.37;;;;;;;18.79;54.08;99524.73;1701901;82;21893;-64
2022/09/25 10:35:05;;;;;;;1.00;0.90;;;;;;;18.68;55.00;99524.27;1683793;83;21535;-61
2022/09/25 10:37:35;;;;;;;1.35;1.20;;;;;;;18.59;55.52;99515.67;1690576;83;21545;-61
2022/09/25 10:40:04;;;;;;;1.42;1.20;;;;;;;18.48;54.72;99523.16;1693095;83;21632;-59
2022/09/25 10:42:38;;;;;;;3.83;1.32;;;;;;;18.31;55.28;99517.42;1693818;82;21591;-60
2022/09/25 10:45:32;;;;;;;1.17;1.17;;;;;;;18.28;56.31;99517.19;1685822;83;22243;-60
2022/09/25 10:50:47;;;;;;;2.05;1.50;;;;;;;18.32;56.37;99514.66;1732043;81;21433;-62
2022/09/25 10:53:30;;;;;;;1.85;1.50;;;;;;;18.28;56.18;99510.05;1696578;81;21444;-58
2022/09/25 10:56:03;;;;;;;1.50;1.30;;;;;;;18.32;55.66;99502.67;1743349;80;21493;-59
2022/09/25 10:58:47;;;;;;;3.50;1.40;;;;;;;18.36;56.34;99502.80;1748657;80;21756;-59
2022/09/25 11:01:15;;;;;;;1.22;1.12;;;;;;;18.32;56.55;99504.50;1733752;80;21419;-59
2022/09/25 11:03:55;;;;;;;1.10;1.00;;;;;;;18.19;57.00;99500.59;1732902;80;21439;-61
2022/09/25 11:06:28;;;;;;;1.65;1.30;;;;;;;18.15;57.31;99501.31;1748285;80;21000;-59
2022/09/25 11:09:18;;;;;;;1.10;1.00;;;;;;;18.17;57.51;99495.88;1727081;81;21584;-60
2022/09/25 11:11:48;;;;;;;1.15;0.98;;;;;;;18.19;57.26;99497.44;1741761;80;22097;-60
2022/09/25 11:14:21;;;;;;;2.42;1.20;;;;;;;18.07;56.79;99492.59;1737777;81;21419;-61
2022/09/25 11:16:54;;;;;;;0.85;0.85;;;;;;;17.98;56.95;99489.78;1736244;80;21573;-60
2022/09/25 11:19:33;;;;;;;1.62;1.20;;;;;;;18.01;56.77;99493.06;1729000;80;21042;-59
2022/09/25 11:22:26;;;;;;;1.37;1.27;;;;;;;18.12;57.29;99490.92;1739010;80;21500;-60
2022/09/25 11:25:16;;;;;;;1.72;1.12;;;;;;;18.22;56.16;99488.40;1709738;82;21814;-60
2022/09/25 11:27:54;;;;;;;1.32;1.22;;;;;;;18.16;55.04;99479.08;1724559;80;21381;-61
2022/09/25 11:30:45;;;;;;;1.37;1.12;;;;;;;18.16;55.33;99485.73;1727257;80;21614;-60
2022/09/25 11:33:43;;;;;;;1.52;1.37;;;;;;;18.14;55.52;99478.34;1688906;83;21488;-61
2022/09/25 11:36:45;;;;;;;1.45;1.35;;;;;;;18.05;55.69;99486.54;1686877;83;21026;-60
2022/09/25 11:42:56;;;;;;;1.35;1.12;;;;;;;17.94;56.55;99477.20;1657239;84;20979;-62
2022/09/25 11:45:48;;;;;;;1.80;1.22;;;;;;;17.81;55.79;99479.91;1689446;83;21460;-60
2022/09/25 11:48:36;;;;;;;1.25;1.15;;;;;;;17.78;55.91;99480.16;1688220;83;21039;-59
2022/09/25 11:51:21;;;;;;;1.30;1.20;;;;;;;17.74;55.87;99473.34;1692032;83;21662;-61
2022/09/25 11:54:16;;;;;;;1.67;1.37;;;;;;;17.74;56.41;99477.83;1687612;83;21760;-61
2022/09/25 11:56:49;;;;;;;2.17;1.20;;;;;;;17.71;56.69;99480.24;1694625;83;21422;-61
2022/09/25 11:59:42;;;;;;;1.37;1.27;;;;;;;17.76;57.16;99482.05;1706552;81;21513;-60
2022/09/25 12:02:32;;;;;;;2.05;1.32;;;;;;;17.81;57.25;99478.58;1672796;83;21587;-60
2022/09/25 12:05:40;;;;;;;5.85;1.60;;;;;;;17.81;58.74;99479.91;1714831;83;21438;-60
2022/09/25 12:08:42;;;;;;;2.87;1.60;;;;;;;17.80;59.30;99482.67;1717046;83;21764;-60
2022/09/25 12:11:44;;;;;;;3.75;1.47;;;;;;;17.78;58.10;99479.28;1713413;82;21121;-60
2022/09/25 12:14:32;;;;;;;1.45;1.35;;;;;;;17.75;57.84;99474.22;1703850;81;21610;-59
2022/09/25 12:17:10;;;;;;;1.67;1.40;;;;;;;17.68;58.51;99479.97;1715062;83;21487;-60
2022/09/25 12:20:01;;;;;;;1.20;0.98;;;;;;;17.68;59.03;99475.14;1715011;83;21508;-60
2022/09/25 12:22:53;;;;;;;2.55;1.07;;;;;;;17.64;58.63;99477.18;1706170;81;21770;-61